createdAt,value
2018-03-03T00:01:33.211Z,68.20
2018-03-03T00:04:01.381Z,68.20
2018-03-03T00:06:29.666Z,68.20
2018-03-03T00:08:57.832Z,68.20
2018-03-03T00:11:26.114Z,68.20
2018-03-03T00:13:54.277Z,68.20
2018-03-03T00:16:22.463Z,68.10
2018-03-03T00:18:50.418Z,68.20
2018-03-03T00:21:18.490Z,68.20
2018-03-03T00:23:46.458Z,68.20
2018-03-03T00:26:14.540Z,68.20
2018-03-03T00:28:42.703Z,68.30
2018-03-03T00:31:10.888Z,68.20
2018-03-03T00:33:38.950Z,68.30
2018-03-03T00:36:07.135Z,68.30
2018-03-03T00:38:35.191Z,68.30
2018-03-03T00:41:03.275Z,68.30
2018-03-03T00:43:32.371Z,68.30
2018-03-03T00:46:00.430Z,68.30
2018-03-03T00:48:28.403Z,68.30
2018-03-03T00:50:56.574Z,68.30
2018-03-03T00:53:24.642Z,68.30
2018-03-03T00:55:52.829Z,68.30
2018-03-03T00:58:20.885Z,68.30
2018-03-03T01:00:49.061Z,68.30
2018-03-03T01:03:17.347Z,68.40
2018-03-03T01:05:45.411Z,68.40
2018-03-03T01:08:13.592Z,68.40
2018-03-03T01:10:44.109Z,68.30
2018-03-03T01:13:12.293Z,68.30
2018-03-03T01:15:40.352Z,68.30
2018-03-03T01:18:08.538Z,68.40
2018-03-03T01:20:36.714Z,68.30
2018-03-03T01:23:04.885Z,68.40
2018-03-03T01:25:32.956Z,68.30
2018-03-03T01:28:01.483Z,68.30
2018-03-03T01:30:29.495Z,68.40
2018-03-03T01:32:57.579Z,68.40
2018-03-03T01:35:25.751Z,68.40
2018-03-03T01:37:53.925Z,68.40
2018-03-03T01:40:21.988Z,68.30
2018-03-03T01:42:50.067Z,68.30
2018-03-03T01:45:18.241Z,68.30
2018-03-03T01:47:46.302Z,68.30
2018-03-03T01:50:14.478Z,69.00
2018-03-03T01:52:42.689Z,68.20
2018-03-03T01:55:10.935Z,68.30
2018-03-03T01:57:39.108Z,68.30
2018-03-03T02:00:07.274Z,68.30
2018-03-03T02:02:35.455Z,68.30
2018-03-03T02:05:03.513Z,68.20
2018-03-03T02:07:32.200Z,68.20
2018-03-03T02:10:00.373Z,68.30
2018-03-03T02:12:28.443Z,68.40
2018-03-03T02:14:56.629Z,68.40
2018-03-03T02:17:24.791Z,68.50
2018-03-03T02:19:52.976Z,68.40
2018-03-03T02:22:21.250Z,68.50
2018-03-03T02:24:49.425Z,68.50
2018-03-03T02:27:17.485Z,68.50
2018-03-03T02:29:46.591Z,68.60
2018-03-03T02:32:14.650Z,68.60
2018-03-03T02:34:42.837Z,68.60
2018-03-03T02:37:11.014Z,68.60
2018-03-03T02:39:39.170Z,68.70
2018-03-03T02:42:07.347Z,68.60
2018-03-03T02:44:35.524Z,69.30
2018-03-03T02:47:03.708Z,68.60
2018-03-03T02:49:31.762Z,68.80
2018-03-03T02:51:59.844Z,68.80
2018-03-03T02:54:28.006Z,68.90
2018-03-03T02:56:56.081Z,68.90
2018-03-03T02:59:24.254Z,68.80
2018-03-03T03:01:52.358Z,68.90
2018-03-03T03:04:21.276Z,68.90
2018-03-03T03:06:49.387Z,68.90
2018-03-03T03:09:17.354Z,68.90
2018-03-03T03:11:45.268Z,69.00
2018-03-03T03:14:13.403Z,69.10
2018-03-03T03:16:43.319Z,69.10
2018-03-03T03:19:11.379Z,69.00
2018-03-03T03:21:39.552Z,69.00
2018-03-03T03:24:07.726Z,69.00
2018-03-03T03:26:36.014Z,69.10
2018-03-03T03:29:04.076Z,69.10
2018-03-03T03:31:32.362Z,69.10
2018-03-03T03:34:00.533Z,69.10
2018-03-03T03:36:28.810Z,69.10
2018-03-03T03:38:56.869Z,69.10
2018-03-03T03:41:25.158Z,69.00
2018-03-03T03:43:53.216Z,69.10
2018-03-03T03:46:21.287Z,69.10
2018-03-03T03:48:52.121Z,69.10
2018-03-03T03:51:21.121Z,69.10
2018-03-03T03:53:49.300Z,69.20
2018-03-03T03:56:17.257Z,69.20
2018-03-03T03:58:45.431Z,69.10
2018-03-03T04:01:13.509Z,69.10
2018-03-03T04:03:42.393Z,69.10
2018-03-03T04:06:10.571Z,69.10
2018-03-03T04:08:38.752Z,69.10
2018-03-03T04:11:06.928Z,69.10
2018-03-03T04:13:35.712Z,69.10
2018-03-03T04:16:03.876Z,69.10
2018-03-03T04:18:32.161Z,69.60
2018-03-03T04:21:00.222Z,69.20
2018-03-03T04:23:28.396Z,69.20
2018-03-03T04:25:56.783Z,69.20
2018-03-03T04:28:24.948Z,69.20
2018-03-03T04:30:53.121Z,69.20
2018-03-03T04:33:21.189Z,69.20
2018-03-03T04:35:49.261Z,69.10
2018-03-03T04:38:17.439Z,69.20
2018-03-03T04:40:45.505Z,69.10
2018-03-03T04:43:14.496Z,69.10
2018-03-03T04:45:42.683Z,69.20
2018-03-03T04:48:11.567Z,69.10
2018-03-03T04:50:40.048Z,69.10
2018-03-03T04:53:08.330Z,69.10
2018-03-03T04:55:36.491Z,69.00
2018-03-03T04:58:04.667Z,69.00
2018-03-03T05:00:38.130Z,69.00
2018-03-03T05:03:11.776Z,69.00
2018-03-03T05:08:45.282Z,69.00
2018-03-03T05:11:15.870Z,69.10
2018-03-03T05:13:43.987Z,69.10
2018-03-03T05:19:19.918Z,69.10
2018-03-03T05:21:53.470Z,69.00
2018-03-03T05:24:27.009Z,69.00
2018-03-03T05:27:00.540Z,69.10
2018-03-03T05:29:33.899Z,69.00
2018-03-03T05:32:07.444Z,69.00
2018-03-03T05:34:41.005Z,69.00
2018-03-03T05:37:14.050Z,69.10
2018-03-03T05:39:47.487Z,69.00
2018-03-03T05:42:21.003Z,69.00
2018-03-03T05:45:06.729Z,69.10
2018-03-03T05:47:39.909Z,69.10
2018-03-03T05:50:13.549Z,69.10
2018-03-03T05:52:47.879Z,69.10
2018-03-03T05:55:33.617Z,69.10
2018-03-03T05:58:05.577Z,69.10
2018-03-03T06:00:38.581Z,69.40
2018-03-03T06:03:08.071Z,69.80
2018-03-03T06:05:50.883Z,69.20
2018-03-03T06:08:29.705Z,69.20
2018-03-03T06:11:01.373Z,69.20
2018-03-03T06:13:29.743Z,69.20
2018-03-03T06:15:57.925Z,69.20
2018-03-03T06:18:25.916Z,69.20
2018-03-03T06:20:54.668Z,69.30
2018-03-03T06:23:22.638Z,69.30
2018-03-03T06:25:50.720Z,69.40
2018-03-03T06:28:18.780Z,69.30
2018-03-03T06:30:46.954Z,69.30
2018-03-03T06:33:15.132Z,69.90
2018-03-03T06:35:43.313Z,69.20
2018-03-03T06:38:11.478Z,69.20
2018-03-03T06:40:39.652Z,69.30
2018-03-03T06:43:07.833Z,69.30
2018-03-03T06:45:36.006Z,69.20
2018-03-03T06:48:04.065Z,69.20
2018-03-03T06:50:32.136Z,69.20
2018-03-03T06:53:00.320Z,69.10
2018-03-03T06:55:28.485Z,69.10
2018-03-03T06:57:56.662Z,69.20
2018-03-03T07:00:24.728Z,69.20
2018-03-03T07:02:52.696Z,69.20
2018-03-03T07:05:20.767Z,69.20
2018-03-03T07:07:49.055Z,69.30
2018-03-03T07:10:17.216Z,69.30
2018-03-03T07:12:45.184Z,69.40
2018-03-03T07:15:13.357Z,69.40
2018-03-03T07:17:41.430Z,69.40
2018-03-03T07:20:09.503Z,69.60
2018-03-03T07:22:38.393Z,69.60
2018-03-03T07:25:06.569Z,69.70
2018-03-03T07:27:35.353Z,69.80
2018-03-03T07:30:06.199Z,69.80
2018-03-03T07:32:34.160Z,69.80
2018-03-03T07:35:02.341Z,69.90
2018-03-03T07:37:30.503Z,69.70
2018-03-03T07:39:58.688Z,69.70
2018-03-03T07:42:26.682Z,69.60
2018-03-03T07:44:55.538Z,69.70
2018-03-03T07:47:24.328Z,69.70
2018-03-03T07:49:52.712Z,69.70
2018-03-03T07:52:20.877Z,69.60
2018-03-03T07:54:49.050Z,69.50
2018-03-03T07:57:17.233Z,69.50
2018-03-03T07:59:45.292Z,69.50
2018-03-03T08:02:14.182Z,69.50
2018-03-03T08:04:42.356Z,69.50
2018-03-03T08:07:10.531Z,69.40
2018-03-03T08:09:38.602Z,69.30
2018-03-03T08:12:06.570Z,69.30
2018-03-03T08:14:34.759Z,69.20
2018-03-03T08:17:04.057Z,69.20
2018-03-03T08:19:32.221Z,69.10
2018-03-03T08:22:00.401Z,69.10
2018-03-03T08:24:28.574Z,69.10
2018-03-03T08:26:56.738Z,69.10
2018-03-03T08:29:24.807Z,69.10
2018-03-03T08:31:52.883Z,69.10
2018-03-03T08:34:20.937Z,69.10
2018-03-03T08:36:49.026Z,69.10
2018-03-03T08:39:17.091Z,69.10
2018-03-03T08:41:45.275Z,69.20
2018-03-03T08:44:13.437Z,69.20
2018-03-03T08:46:41.717Z,69.30
2018-03-03T08:49:09.788Z,69.30
2018-03-03T08:51:38.676Z,69.30
2018-03-03T08:54:06.853Z,69.20
2018-03-03T08:56:35.034Z,69.20
2018-03-03T08:59:03.198Z,69.20
2018-03-03T09:01:31.167Z,69.30
2018-03-03T09:03:59.240Z,69.30
2018-03-03T09:06:27.413Z,70.00
2018-03-03T09:08:55.479Z,69.30
2018-03-03T09:11:24.441Z,69.10
2018-03-03T09:13:52.657Z,69.00
2018-03-03T09:16:20.716Z,69.80
2018-03-03T09:18:48.793Z,68.90
2018-03-03T09:21:16.964Z,69.00
2018-03-03T09:23:45.137Z,69.10
2018-03-03T09:26:13.210Z,69.10
2018-03-03T09:28:41.494Z,69.00
2018-03-03T09:31:09.553Z,69.00
2018-03-03T09:33:37.635Z,69.00
2018-03-03T09:36:05.842Z,69.00
2018-03-03T09:38:34.698Z,68.90
2018-03-03T09:41:02.655Z,69.10
2018-03-03T09:43:31.071Z,69.10
2018-03-03T09:45:59.929Z,69.10
2018-03-03T09:48:31.654Z,69.10
2018-03-03T09:51:01.135Z,69.10
2018-03-03T09:53:33.031Z,68.90
2018-03-03T09:56:01.015Z,68.90
2018-03-03T09:58:28.984Z,69.00
2018-03-03T10:00:58.079Z,69.00
2018-03-03T10:03:26.152Z,69.00
2018-03-03T10:05:54.335Z,69.10
2018-03-03T10:08:22.515Z,69.10
2018-03-03T10:10:51.296Z,69.00
2018-03-03T10:13:19.354Z,69.80
2018-03-03T10:15:47.531Z,69.10
2018-03-03T10:18:15.703Z,69.10
2018-03-03T10:20:44.010Z,69.30
2018-03-03T10:23:12.150Z,69.20
2018-03-03T10:25:40.222Z,69.20
2018-03-03T10:28:08.407Z,69.10
2018-03-03T10:30:37.182Z,69.00
2018-03-03T10:33:05.801Z,69.00
2018-03-03T10:35:34.662Z,68.90
2018-03-03T10:38:02.845Z,68.90
2018-03-03T10:40:31.009Z,68.90
2018-03-03T10:42:58.971Z,68.50
2018-03-03T10:45:26.942Z,69.00
2018-03-03T10:47:55.126Z,69.10
2018-03-03T10:50:23.802Z,69.20
2018-03-03T10:52:51.875Z,69.20
2018-03-03T10:55:20.050Z,69.10
2018-03-03T10:57:48.217Z,69.10
2018-03-03T11:00:21.858Z,69.00
2018-03-03T11:02:50.814Z,69.80
2018-03-03T11:05:18.881Z,69.10
2018-03-03T11:07:46.952Z,69.10
2018-03-03T11:10:15.192Z,69.10
2018-03-03T11:12:43.196Z,69.10
2018-03-03T11:15:11.271Z,69.00
2018-03-03T11:17:39.340Z,69.10
2018-03-03T11:20:07.411Z,69.20
2018-03-03T11:22:35.493Z,69.20
2018-03-03T11:25:04.012Z,69.40
2018-03-03T11:27:32.033Z,69.30
2018-03-03T11:30:00.105Z,69.30
2018-03-03T11:32:28.179Z,69.40
2018-03-03T11:34:56.143Z,69.50
2018-03-03T11:37:24.329Z,69.30
2018-03-03T11:39:53.109Z,69.30
2018-03-03T11:42:21.176Z,69.30
2018-03-03T11:44:49.361Z,69.20
2018-03-03T11:47:17.637Z,69.30
2018-03-03T11:49:45.709Z,69.40
2018-03-03T11:52:13.869Z,69.50
2018-03-03T11:54:42.156Z,69.60
2018-03-03T11:57:10.319Z,70.30
2018-03-03T11:59:39.929Z,69.60
2018-03-03T12:02:08.920Z,69.70
2018-03-03T12:04:36.992Z,69.60
2018-03-03T12:07:05.163Z,69.60
2018-03-03T12:09:33.236Z,69.60
2018-03-03T12:12:01.613Z,69.60
2018-03-03T12:14:29.797Z,69.60
2018-03-03T12:16:59.612Z,69.80
2018-03-03T12:19:27.774Z,69.80
2018-03-03T12:21:55.944Z,69.80
2018-03-03T12:24:24.120Z,69.80
2018-03-03T12:26:52.302Z,69.80
2018-03-03T12:29:23.795Z,69.90
2018-03-03T12:31:51.918Z,69.90
2018-03-03T12:34:20.095Z,69.80
2018-03-03T12:36:48.261Z,69.80
2018-03-03T12:39:16.440Z,69.90
2018-03-03T12:41:44.611Z,69.90
2018-03-03T12:44:12.897Z,70.00
2018-03-03T12:46:41.677Z,69.80
2018-03-03T12:49:09.845Z,69.70
2018-03-03T12:51:38.133Z,69.90
2018-03-03T12:54:07.079Z,69.90
2018-03-03T12:56:35.190Z,69.90
2018-03-03T12:59:03.360Z,69.90
2018-03-03T13:01:31.533Z,69.90
2018-03-03T13:03:59.415Z,69.90
2018-03-03T13:06:27.685Z,69.90
2018-03-03T13:08:55.745Z,69.90
2018-03-03T13:11:23.924Z,69.90
2018-03-03T13:13:52.091Z,69.90
2018-03-03T13:16:22.038Z,70.00
2018-03-03T13:18:51.923Z,69.90
2018-03-03T13:21:19.993Z,69.90
2018-03-03T13:23:50.113Z,69.80
2018-03-03T13:26:18.282Z,69.70
2018-03-03T13:28:46.457Z,69.70
2018-03-03T13:31:15.653Z,69.80
2018-03-03T13:33:43.841Z,70.00
2018-03-03T13:36:12.010Z,70.00
2018-03-03T13:38:40.175Z,70.00
2018-03-03T13:41:08.354Z,70.00
2018-03-03T13:43:36.719Z,70.00
2018-03-03T13:46:04.914Z,70.00
2018-03-03T13:48:33.188Z,70.10
2018-03-03T13:51:01.760Z,70.30
2018-03-03T13:53:29.948Z,70.30
2018-03-03T13:55:58.111Z,70.20
2018-03-03T13:58:26.074Z,70.10
2018-03-03T14:00:54.249Z,70.10
2018-03-03T14:03:23.244Z,70.10
2018-03-03T14:05:51.416Z,70.20
2018-03-03T14:08:19.701Z,70.20
2018-03-03T14:10:47.765Z,70.10
2018-03-03T14:13:15.933Z,70.10
2018-03-03T14:15:44.018Z,70.00
2018-03-03T14:18:13.058Z,70.00
2018-03-03T14:20:41.171Z,70.00
2018-03-03T14:23:10.072Z,70.10
2018-03-03T14:25:38.246Z,70.10
2018-03-03T14:28:06.417Z,70.90
2018-03-03T14:30:34.593Z,70.40
2018-03-03T14:33:02.766Z,70.40
2018-03-03T14:35:30.931Z,70.40
2018-03-03T14:37:58.999Z,70.40
2018-03-03T14:40:27.081Z,70.30
2018-03-03T14:42:55.244Z,70.40
2018-03-03T14:45:23.428Z,70.60
2018-03-03T14:47:51.596Z,70.50
2018-03-03T14:50:19.763Z,70.60
2018-03-03T14:52:47.834Z,70.60
2018-03-03T14:55:15.909Z,70.50
2018-03-03T14:57:44.286Z,70.60
2018-03-03T15:00:12.458Z,70.60
2018-03-03T15:02:40.635Z,70.70
2018-03-03T15:05:08.676Z,70.70
2018-03-03T15:07:36.786Z,70.60
2018-03-03T15:10:05.664Z,70.80
2018-03-03T15:12:33.756Z,70.80
2018-03-03T15:15:02.624Z,70.80
2018-03-03T15:17:30.703Z,70.80
2018-03-03T15:19:58.874Z,70.80
2018-03-03T15:22:26.952Z,70.80
2018-03-03T15:24:55.010Z,70.70
2018-03-03T15:27:23.182Z,70.70
2018-03-03T15:29:54.134Z,70.80
2018-03-03T15:32:22.199Z,70.70
2018-03-03T15:34:50.382Z,70.70
2018-03-03T15:37:18.542Z,70.80
2018-03-03T15:39:47.442Z,70.80
2018-03-03T15:42:15.614Z,70.80
2018-03-03T15:44:43.892Z,70.90
2018-03-03T15:47:12.057Z,71.00
2018-03-03T15:49:40.124Z,71.00
2018-03-03T15:52:08.502Z,71.00
2018-03-03T15:54:36.687Z,71.10
2018-03-03T15:57:04.860Z,71.20
2018-03-03T15:59:33.027Z,71.20
2018-03-03T16:02:01.413Z,71.10
2018-03-03T16:04:29.576Z,71.20
2018-03-03T16:06:57.814Z,71.20
2018-03-03T16:09:26.240Z,71.30
2018-03-03T16:11:54.299Z,71.40
2018-03-03T16:14:22.485Z,71.40
2018-03-03T16:16:50.553Z,71.20
2018-03-03T16:19:18.618Z,71.40
2018-03-03T16:21:47.406Z,71.20
2018-03-03T16:24:15.608Z,71.30
2018-03-03T16:26:44.476Z,71.30
2018-03-03T16:29:12.550Z,71.30
2018-03-03T16:31:40.710Z,71.30
2018-03-03T16:34:08.884Z,71.30
2018-03-03T16:36:37.262Z,71.40
2018-03-03T16:39:05.435Z,71.40
2018-03-03T16:41:33.607Z,71.50
2018-03-03T16:44:01.682Z,71.50
2018-03-03T16:46:29.855Z,71.50
2018-03-03T16:48:58.095Z,71.50
2018-03-03T16:51:26.212Z,72.20
2018-03-03T16:53:55.204Z,71.60
2018-03-03T16:56:24.208Z,71.60
2018-03-03T16:58:54.610Z,71.60
2018-03-03T17:01:22.797Z,71.60
2018-03-03T17:03:50.970Z,71.60
2018-03-03T17:06:19.132Z,71.60
2018-03-03T17:08:47.099Z,71.70
2018-03-03T17:11:15.274Z,71.70
2018-03-03T17:13:43.451Z,71.70
2018-03-03T17:16:12.495Z,71.80
2018-03-03T17:18:40.510Z,71.80
2018-03-03T17:21:08.433Z,71.80
2018-03-03T17:23:36.664Z,71.80
2018-03-03T17:26:04.776Z,71.80
2018-03-03T17:28:32.900Z,71.80
2018-03-03T17:31:01.083Z,71.80
2018-03-03T17:33:29.248Z,71.80
2018-03-03T17:35:57.531Z,71.90
2018-03-03T17:38:25.696Z,71.90
2018-03-03T17:40:53.661Z,72.00
2018-03-03T17:43:21.948Z,72.00
2018-03-03T17:45:50.110Z,72.00
2018-03-03T17:48:18.880Z,72.00
2018-03-03T17:50:46.970Z,71.90
2018-03-03T17:53:15.149Z,72.00
2018-03-03T17:55:43.318Z,72.00
2018-03-03T17:58:11.507Z,72.00
2018-03-03T18:00:40.394Z,72.10
2018-03-03T18:03:08.559Z,72.10
2018-03-03T18:05:36.746Z,72.10
2018-03-03T18:08:04.905Z,72.10
2018-03-03T18:10:33.078Z,72.10
2018-03-03T18:13:01.366Z,72.10
2018-03-03T18:15:29.422Z,72.00
2018-03-03T18:17:57.465Z,72.00
2018-03-03T18:20:25.571Z,72.20
2018-03-03T18:22:53.641Z,72.20
2018-03-03T18:25:21.819Z,72.20
2018-03-03T18:27:49.878Z,72.20
2018-03-03T18:30:18.158Z,72.10
2018-03-03T18:32:46.340Z,72.20
2018-03-03T18:35:15.940Z,72.30
2018-03-03T18:37:44.008Z,72.20
2018-03-03T18:40:12.179Z,72.30
2018-03-03T18:42:40.355Z,72.20
2018-03-03T18:45:08.426Z,72.20
2018-03-03T18:47:36.608Z,72.20
2018-03-03T18:50:04.786Z,72.30
2018-03-03T18:52:32.956Z,72.30
2018-03-03T18:55:01.130Z,72.20
2018-03-03T18:57:30.023Z,72.30
2018-03-03T18:59:58.085Z,72.40
2018-03-03T19:02:26.353Z,72.40
2018-03-03T19:04:54.426Z,72.40
2018-03-03T19:07:22.598Z,72.40
2018-03-03T19:09:51.147Z,72.40
2018-03-03T19:12:19.253Z,72.40
2018-03-03T19:14:47.337Z,72.50
2018-03-03T19:17:15.500Z,72.40
2018-03-03T19:19:43.675Z,72.50
2018-03-03T19:22:11.849Z,72.50
2018-03-03T19:24:39.915Z,72.50
2018-03-03T19:27:08.102Z,72.50
2018-03-03T19:29:36.263Z,72.50
2018-03-03T19:32:04.448Z,72.50
2018-03-03T19:34:32.519Z,72.50
2018-03-03T19:37:00.577Z,72.50
2018-03-03T19:39:28.552Z,72.60
2018-03-03T19:41:56.732Z,72.60
2018-03-03T19:44:25.408Z,72.70
2018-03-03T19:46:54.301Z,72.70
2018-03-03T19:49:22.489Z,72.70
2018-03-03T19:51:50.544Z,72.70
2018-03-03T19:54:18.617Z,73.20
2018-03-03T19:56:46.688Z,72.60
2018-03-03T19:59:14.862Z,72.60
2018-03-03T20:01:43.029Z,72.60
2018-03-03T20:04:11.102Z,72.80
2018-03-03T20:06:39.171Z,72.70
2018-03-03T20:09:07.766Z,72.70
2018-03-03T20:11:35.829Z,72.70
2018-03-03T20:14:04.011Z,72.70
2018-03-03T20:16:32.176Z,72.80
2018-03-03T20:19:01.068Z,73.40
2018-03-03T20:21:29.144Z,72.80
2018-03-03T20:23:57.318Z,72.70
2018-03-03T20:26:25.275Z,72.70
2018-03-03T20:28:53.563Z,72.70
2018-03-03T20:31:21.732Z,72.70
2018-03-03T20:33:51.228Z,72.70
2018-03-03T20:36:19.414Z,72.80
2018-03-03T20:38:48.190Z,72.80
2018-03-03T20:41:16.376Z,72.80
2018-03-03T20:43:44.652Z,72.80
2018-03-03T20:46:12.816Z,72.80
2018-03-03T20:48:40.999Z,72.80
2018-03-03T20:51:09.061Z,72.90
2018-03-03T20:53:37.132Z,73.60
2018-03-03T20:56:05.307Z,72.80
2018-03-03T20:58:33.476Z,72.80
2018-03-03T21:01:01.661Z,72.80
2018-03-03T21:03:29.827Z,72.80
2018-03-03T21:05:57.994Z,72.80
2018-03-03T21:08:25.963Z,72.80
2018-03-03T21:10:54.038Z,72.90
2018-03-03T21:13:22.118Z,72.90
2018-03-03T21:15:50.636Z,72.80
2018-03-03T21:18:18.765Z,72.80
2018-03-03T21:20:46.940Z,72.80
2018-03-03T21:23:15.823Z,72.80
2018-03-03T21:25:44.412Z,72.80
2018-03-03T21:28:12.377Z,72.80
2018-03-03T21:30:40.664Z,72.80
2018-03-03T21:33:08.837Z,72.80
2018-03-03T21:35:36.793Z,72.80
2018-03-03T21:38:04.971Z,72.90
2018-03-03T21:40:33.039Z,72.80
2018-03-03T21:43:01.928Z,72.80
2018-03-03T21:45:30.728Z,72.80
2018-03-03T21:47:59.004Z,72.80
2018-03-03T21:50:27.174Z,72.70
2018-03-03T21:52:56.169Z,72.80
2018-03-03T21:55:24.343Z,72.80
2018-03-03T21:57:53.234Z,72.70
2018-03-03T22:00:21.292Z,72.80
2018-03-03T22:02:49.589Z,72.70
2018-03-03T22:05:19.073Z,72.80
2018-03-03T22:07:47.352Z,72.80
2018-03-03T22:10:15.433Z,72.60
2018-03-03T22:12:43.604Z,72.80
2018-03-03T22:15:12.280Z,72.60
2018-03-03T22:17:40.349Z,72.60
2018-03-03T22:20:08.216Z,72.60
2018-03-03T22:22:36.300Z,72.60
2018-03-03T22:25:05.292Z,72.60
2018-03-03T22:27:33.464Z,72.60
2018-03-03T22:30:01.536Z,72.60
2018-03-03T22:32:30.529Z,72.60
2018-03-03T22:34:58.694Z,72.70
2018-03-03T22:37:29.422Z,72.70
2018-03-03T22:39:57.616Z,72.70
2018-03-03T22:42:25.668Z,72.70
2018-03-03T22:44:53.743Z,73.00
2018-03-03T22:47:21.821Z,72.70
2018-03-03T22:49:50.002Z,72.70
2018-03-03T22:52:18.771Z,72.80
2018-03-03T22:54:46.946Z,72.70
2018-03-03T22:57:15.028Z,72.70
2018-03-03T22:59:43.096Z,72.80
2018-03-03T23:02:11.260Z,72.80
2018-03-03T23:04:39.446Z,72.70
2018-03-03T23:07:07.619Z,72.70
2018-03-03T23:09:35.782Z,72.70
2018-03-03T23:12:03.748Z,72.70
2018-03-03T23:14:32.439Z,72.80
2018-03-03T23:17:01.327Z,72.80
2018-03-03T23:19:30.318Z,72.80
2018-03-03T23:21:58.494Z,72.80
2018-03-03T23:24:26.561Z,72.80
2018-03-03T23:26:54.748Z,72.80
2018-03-03T23:29:22.920Z,72.80
2018-03-03T23:31:50.876Z,72.80
2018-03-03T23:34:19.054Z,72.80
2018-03-03T23:36:47.018Z,72.80
2018-03-03T23:39:15.093Z,72.80
2018-03-03T23:41:43.267Z,72.80
2018-03-03T23:44:12.258Z,72.80
2018-03-03T23:46:40.338Z,72.80
2018-03-03T23:49:08.501Z,72.80
2018-03-03T23:51:37.288Z,72.80
2018-03-03T23:54:12.119Z,72.80
2018-03-03T23:56:40.200Z,72.80
2018-03-03T23:59:08.259Z,72.80
